• Join FlightAware (Why Join?)
  • Login
  • US Flag 
11:01AM EDT


 

Airport Tracker/Info


-or-


 

Live Flight TrackerFlight Track Log ✈ JST431 ✈ 24-Jul-2013 ✈ YBCG / OOL - YMML / MEL

Flight Track Log - Related Links

Times and Time Zones

All times are in EDT time to prevent confusion due to time zone crossing. See the JST431 flight status page for this flight to view local times or setup timezone preferences in your user account.

Time Position Orientation Groundspeed Altitude Reporting Facility
EDT Latitude Longitude Course Direction KTS MPH feet Rate Location/Type
04:57PM -28.2079 153.5304 161° South 175 201 2,300  Level Aus ATC (RADAR)
04:58PM -28.2170 153.5340 160° South 197 227 2,400 1,740 Climbing FlightAware
04:58PM -28.2480 153.5470 160° South 224 258 3,700 2,280 Climbing FlightAware
04:58PM -28.2650 153.5470 180° South 243 280 4,300 1,980 Climbing FlightAware
04:59PM -28.2730 153.5420 209° Southwest 252 290 4,600 2,700 Climbing FlightAware
04:59PM -28.2840 153.5260 232° Southwest 263 303 5,300 2,460 Climbing FlightAware
04:59PM -28.3010 153.4950 238° Southwest 290 334 6,100 2,100 Climbing FlightAware
05:00PM -28.3520 153.4110 235° Southwest 336 387 8,300 2,400 Climbing FlightAware
05:01PM -28.3750 153.3750 234° Southwest 339 390 9,500 2,700 Climbing FlightAware
05:01PM -28.4150 153.3080 236° Southwest 350 403 11,500 2,460 Climbing FlightAware
05:02PM -28.4540 153.2440 235° Southwest 363 418 13,000 2,400 Climbing FlightAware
05:03PM -28.4920 153.1800 236° Southwest 367 422 14,800 2,460 Climbing FlightAware
05:03PM -28.5366 153.1082 236° Southwest 371 427 16,500 1,860 Climbing Aus ATC (RADAR)
05:03PM -28.5360 153.1080 236° Southwest 380 437 16,200 2,100 Descending FlightAware
05:04PM -28.5750 153.0430 236° Southwest 378 435 18,000 2,460 Climbing FlightAware
05:05PM -28.6190 152.9700 236° Southwest 377 434 19,700 2,160 Climbing FlightAware
05:05PM -28.6601 152.9022 236° Southwest 380 437 21,000 1,560 Climbing Aus ATC (RADAR)
05:05PM -28.6620 152.8990 236° Southwest 388 447 20,800 1,080 Descending FlightAware
05:06PM -28.7080 152.8230 235° Southwest 398 458 21,900 1,380 Climbing FlightAware
05:07PM -28.7500 152.7510 236° Southwest 406 467 22,800 1,320 Climbing FlightAware
05:08PM -28.7910 152.6820 236° Southwest 413 475 23,700 1,620 Climbing FlightAware
05:08PM -28.8340 152.6100 236° Southwest 411 473 25,000 2,280 Climbing FlightAware
05:08PM -28.8390 152.6033 236° Southwest 408 470 25,300 1,620 Climbing Aus ATC (RADAR)
05:09PM -28.8795 152.5432 236° Southwest 409 471 26,000 900 Climbing Aus ATC (RADAR)
05:09PM -28.8810 152.5410 236° Southwest 415 478 25,900 1,320 Descending FlightAware
05:09PM -28.9233 152.4847 236° Southwest 415 478 26,800 1,200 Climbing Aus ATC (RADAR)
05:10PM -28.9320 152.4720 236° Southwest 418 481 26,700 840 Descending FlightAware
05:10PM -28.9790 152.4070 230° Southwest 421 484 27,500 1,020 Climbing FlightAware
05:11PM -29.0320 152.3340 230° Southwest 428 493 28,100 1,260 Climbing FlightAware
05:11PM -29.0352 152.3309 230° Southwest 424 488 28,400 1,260 Climbing Aus ATC (RADAR)
05:11PM -29.0734 152.2785 230° Southwest 428 493 28,800 360 Climbing Aus ATC (RADAR)
05:11PM -29.0760 152.2740 230° Southwest 434 499 28,600 1,380 Descending FlightAware
05:12PM -29.1180 152.2162 230° Southwest 432 497 29,600 1,560 Climbing Aus ATC (RADAR)
05:12PM -29.1330 152.1950 230° Southwest 428 493 29,800 840 Climbing FlightAware
05:13PM -29.1830 152.1270 230° Southwest 430 495 30,400 1,020 Climbing FlightAware
05:14PM -29.2410 152.0460 231° Southwest 430 495 31,300 1,200 Climbing FlightAware
05:14PM -29.2889 151.9810 231° Southwest 429 494 32,100 840 Climbing Aus ATC (RADAR)
05:14PM -29.3020 151.9620 231° Southwest 430 495 32,000 -120 Descending FlightAware
05:15PM -29.3570 151.8860 230° Southwest 430 495 32,000 180 Level FlightAware
05:16PM -29.4078 151.8167 230° Southwest 426 490 32,300  Climbing Aus ATC (RADAR)
05:16PM -29.4420 151.7670 230° Southwest 431 496 32,000 -300 Descending FlightAware
05:17PM -29.4870 151.7030 231° Southwest 431 496 32,000  Level FlightAware
05:18PM -29.5460 151.6360 225° Southwest 435 501 32,000  Level FlightAware
05:18PM -29.6070 151.5820 218° Southwest 436 502 32,000 180 Level FlightAware
05:19PM -29.6878 151.5095 218° Southwest 432 497 32,300  Climbing Aus ATC (RADAR)
05:19PM -29.6720 151.5250 218° Southwest 436 502 32,000 120 Descending FlightAware
05:20PM -29.7425 151.4599 218° Southwest 431 496 32,400  Climbing Aus ATC (RADAR)
05:20PM -29.7220 151.4830 218° Southwest 436 502 32,000 -540 Descending FlightAware
05:20PM -29.8150 151.3920 220° Southwest 431 496 32,000  Level FlightAware
05:21PM -29.8880 151.3270 218° Southwest 431 496 32,000 240 Level FlightAware
05:22PM -29.9537 151.2683 218° Southwest 432 497 32,400  Climbing Aus ATC (RADAR)
05:22PM -29.9500 151.2700 218° Southwest 430 495 32,000  Descending FlightAware
05:23PM -30.0155 151.2106 218° Southwest 429 494 32,400  Climbing Aus ATC (RADAR)
05:23PM -30.0230 151.2040 218° Southwest 429 494 32,000 -420 Descending FlightAware
05:24PM -30.0860 151.1470 218° Southwest 429 494 32,000 360 Level FlightAware
05:24PM -30.1097 151.1249 218° Southwest 434 499 32,300  Climbing Aus ATC (RADAR)
05:24PM -30.1470 151.0910 218° Southwest 429 494 32,000 -240 Descending FlightAware
05:25PM -30.1950 151.0480 218° Southwest 429 494 32,000  Level FlightAware
05:26PM -30.2760 150.9750 218° Southwest 429 494 32,000  Level FlightAware
05:27PM -30.3240 150.9310 218° Southwest 429 494 32,000 600 Level FlightAware
05:27PM -30.3924 150.8644 218° Southwest 430 495 32,400 420 Climbing Aus ATC (RADAR)
05:27PM -30.4538 150.8089 218° Southwest 421 484 32,300 -540 Descending Aus ATC (RADAR)
05:27PM -30.3890 150.8720 218° Southwest 429 494 32,000 -480 Descending FlightAware
05:28PM -30.4350 150.8310 218° Southwest 429 494 32,000  Level FlightAware
05:29PM -30.4840 150.7870 218° Southwest 429 494 32,000 240 Level FlightAware
05:29PM -30.6452 150.6305 218° Southwest 427 491 32,400  Climbing Aus ATC (RADAR)
05:30PM -30.6480 150.6270 218° Southwest 419 482 32,000 -480 Descending FlightAware
05:30PM -30.6950 150.5830 219° Southwest 419 482 32,000 120 Level FlightAware
05:31PM -30.7760 150.5080 218° Southwest 32,000 240 Level FlightAware
05:31PM -30.8282 150.4599 218° Southwest 426 490 32,300 360 Climbing Aus ATC (RADAR)
05:32PM -30.8816 150.4102 219° Southwest 424 488 32,400  Climbing Aus ATC (RADAR)
05:32PM -30.9020 150.3900 219° Southwest 32,000  Descending FlightAware
05:33PM -30.9958 150.3034 219° Southwest 422 486 32,400  Climbing Aus ATC (RADAR)
05:33PM -31.0080 150.2910 219° Southwest 419 482 32,000 -480 Descending FlightAware
05:34PM -31.0800 150.2240 219° Southwest 431 496 32,000 60 Level FlightAware
05:35PM -31.1360 150.1710 219° Southwest 422 486 32,100 480 Climbing FlightAware
05:35PM -31.1506 150.1582 219° Southwest 422 486 32,400  Climbing Aus ATC (RADAR)
05:35PM -31.1930 150.1170 219° Southwest 418 481 32,100  Descending FlightAware
05:36PM -31.2420 150.0718 219° Southwest 417 480 32,400 -180 Climbing Aus ATC (RADAR)
05:36PM -31.2640 150.0500 219° Southwest 417 480 32,000 -480 Descending FlightAware
05:37PM -31.3260 149.9920 219° Southwest 417 480 32,000 360 Level FlightAware
05:37PM -31.3349 149.9842 219° Southwest 424 488 32,300  Climbing Aus ATC (RADAR)
05:37PM -31.3790 149.9420 219° Southwest 417 480 32,000 -300 Descending FlightAware
05:38PM -31.4350 149.8880 219° Southwest 418 481 32,000 300 Level FlightAware
05:39PM -31.5005 149.8262 219° Southwest 417 480 32,400  Climbing Aus ATC (RADAR)
05:39PM -31.4960 149.8300 219° Southwest 418 481 32,000  Descending FlightAware
05:39PM -31.5553 149.7746 219° Southwest 424 488 32,400  Climbing Aus ATC (RADAR)
05:39PM -31.5620 149.7680 219° Southwest 418 481 32,000 -600 Descending FlightAware
05:40PM -31.6160 149.7170 219° Southwest 418 481 32,000 300 Level FlightAware
05:41PM -31.6750 149.6603 219° Southwest 417 480 32,400  Climbing Aus ATC (RADAR)
05:41PM -31.6850 149.6500 219° Southwest 417 480 32,000 -480 Descending FlightAware
05:41PM -31.7530 149.5850 219° Southwest 417 480 32,000  Level FlightAware
05:42PM -31.8110 149.5300 219° Southwest 416 479 32,000 240 Level FlightAware
05:43PM -31.8792 149.4643 219° Southwest 417 480 32,400  Climbing Aus ATC (RADAR)
05:43PM -31.8780 149.4650 219° Southwest 417 480 32,000  Descending FlightAware
05:43PM -31.9324 149.4130 219° Southwest 419 482 32,400  Climbing Aus ATC (RADAR)
05:43PM -31.9400 149.4060 219° Southwest 418 481 32,000  Descending FlightAware
05:44PM -31.9852 149.3623 219° Southwest 417 480 32,400  Climbing Aus ATC (RADAR)
05:44PM -31.9940 149.3540 219° Southwest 419 482 32,000 -540 Descending FlightAware
05:45PM -32.0550 149.2950 219° Southwest 420 483 32,000  Level FlightAware
05:45PM -32.1240 149.2280 219° Southwest 423 487 32,000 60 Level FlightAware
05:46PM -32.1860 149.1680 219° Southwest 422 486 32,100 60 Climbing FlightAware
05:47PM -32.2380 149.1170 220° Southwest 421 484 32,100 -120 Level FlightAware
05:47PM -32.3060 149.0510 219° Southwest 420 483 32,000 -120 Descending FlightAware
05:48PM -32.3770 148.9820 219° Southwest 418 481 32,000  Level FlightAware
05:49PM -32.4300 148.9300 219° Southwest 418 481 32,000 540 Level FlightAware
05:49PM -32.4439 148.9166 219° Southwest 424 488 32,400 420 Climbing Aus ATC (RADAR)
05:50PM -32.4968 148.8652 219° Southwest 423 487 32,300 -660 Descending Aus ATC (RADAR)
05:50PM -32.4980 148.8640 219° Southwest 423 487 32,000 -360 Descending FlightAware
05:50PM -32.5650 148.7970 220° Southwest 423 487 32,000 180 Level FlightAware
05:51PM -32.6154 148.7490 220° Southwest 417 480 32,300  Climbing Aus ATC (RADAR)
05:51PM -32.6270 148.7370 220° Southwest 423 487 32,000  Descending FlightAware
05:52PM -32.6829 148.6823 220° Southwest 417 480 32,300  Climbing Aus ATC (RADAR)
05:52PM -32.6860 148.6780 220° Southwest 422 486 32,000  Descending FlightAware
05:52PM -32.7352 148.6306 220° Southwest 417 480 32,300  Climbing Aus ATC (RADAR)
05:52PM -32.7540 148.6120 220° Southwest 422 486 32,000  Descending FlightAware
05:53PM -32.8050 148.5621 220° Southwest 423 487 32,300  Climbing Aus ATC (RADAR)
05:53PM -32.8210 148.5460 220° Southwest 421 484 32,000 -420 Descending FlightAware
05:54PM -32.8740 148.4930 220° Southwest 421 484 32,000  Level FlightAware
05:54PM -32.9410 148.4270 220° Southwest 421 484 32,000  Level FlightAware
05:55PM -32.9920 148.3760 220° Southwest 420 483 32,000  Level FlightAware
05:56PM -33.0530 148.3150 220° Southwest 419 482 32,000  Level FlightAware
05:56PM -33.1120 148.2570 220° Southwest 417 480 32,000 360 Level FlightAware
05:57PM -33.1236 148.2455 220° Southwest 415 478 32,300 420 Climbing Aus ATC (RADAR)
05:57PM -33.1759 148.1951 220° Southwest 412 474 32,300 -480 Level Aus ATC (RADAR)
05:57PM -33.1790 148.1920 220° Southwest 409 471 32,000 120 Descending FlightAware
05:58PM -33.2372 148.1396 220° Southwest 412 474 32,400  Climbing Aus ATC (RADAR)
05:58PM -33.2400 148.1370 220° Southwest 410 472 32,000  Descending FlightAware
05:58PM -33.2905 148.0907 220° Southwest 412 474 32,400  Climbing Aus ATC (RADAR)
05:58PM -33.3010 148.0800 220° Southwest 411 473 32,000 -480 Descending FlightAware
05:59PM -33.3720 148.0160 217° Southwest 413 475 32,000  Level FlightAware
06:00PM -33.4250 147.9650 219° Southwest 413 475 32,000  Level FlightAware
06:01PM -33.4940 147.9020 217° Southwest 414 476 32,000  Level FlightAware
06:01PM -33.5550 147.8450 217° Southwest 414 476 32,000 720 Level FlightAware
06:01PM -33.5204 147.8775 217° Southwest 418 481 32,500  Climbing Aus ATC (RADAR)
06:02PM -33.6240 147.7810 218° Southwest 415 478 32,000 -360 Descending FlightAware
06:03PM -33.6860 147.7230 218° Southwest 415 478 32,000  Level FlightAware
06:03PM -33.7560 147.6570 218° Southwest 414 476 32,000  Level FlightAware
06:04PM -33.8170 147.6000 218° Southwest 413 475 32,000 540 Level FlightAware
06:04PM -33.7353 147.6770 218° Southwest 416 479 32,400 840 Climbing Aus ATC (RADAR)
06:05PM -33.7966 147.6197 218° Southwest 417 480 32,500 -660 Climbing Aus ATC (RADAR)
06:05PM -33.8780 147.5420 218° Southwest 413 475 32,000 -180 Descending FlightAware
06:05PM -33.9043 147.5177 218° Southwest 415 478 32,400  Climbing Aus ATC (RADAR)
06:05PM -33.9390 147.4850 218° Southwest 413 475 32,000  Descending FlightAware
06:06PM -34.0114 147.4169 218° Southwest 418 481 32,400  Climbing Aus ATC (RADAR)
06:06PM -34.0070 147.4210 218° Southwest 412 474 32,000 -600 Descending FlightAware
06:07PM -34.0700 147.3610 218° Southwest 413 475 32,000  Level FlightAware
06:08PM -34.1370 147.2970 218° Southwest 415 478 32,000  Level FlightAware
06:08PM -34.1980 147.2400 218° Southwest 416 479 32,000  Level FlightAware
06:09PM -34.2680 147.1730 218° Southwest 417 480 32,000 360 Level FlightAware
06:10PM -34.3239 147.1204 218° Southwest 421 484 32,500  Climbing Aus ATC (RADAR)
06:10PM -34.3290 147.1150 218° Southwest 418 481 32,000 -180 Descending FlightAware
06:10PM -34.3780 147.0690 218° Southwest 422 486 32,400  Climbing Aus ATC (RADAR)
06:10PM -34.3980 147.0490 218° Southwest 418 481 32,000 -480 Descending FlightAware
06:11PM -34.4610 146.9890 218° Southwest 420 483 32,000 300 Level FlightAware
06:12PM -34.5109 146.9422 218° Southwest 423 487 32,400  Climbing Aus ATC (RADAR)
06:12PM -34.5220 146.9300 218° Southwest 427 491 32,000 -360 Descending FlightAware
06:13PM -34.6160 146.8400 218° Southwest 428 493 32,000 300 Level FlightAware
06:13PM -34.6792 146.7797 218° Southwest 424 488 32,500  Climbing Aus ATC (RADAR)
06:13PM -34.6780 146.7800 218° Southwest 421 484 32,000 -180 Descending FlightAware
06:14PM -34.7334 146.7273 218° Southwest 425 489 32,400  Climbing Aus ATC (RADAR)
06:14PM -34.7390 146.7210 218° Southwest 421 484 32,000  Descending FlightAware
06:15PM -34.7872 146.6747 218° Southwest 426 490 32,400  Climbing Aus ATC (RADAR)
06:15PM -34.8080 146.6550 218° Southwest 427 491 32,000 -480 Descending FlightAware
06:15PM -34.8720 146.5920 219° Southwest 428 493 32,000  Level FlightAware
06:16PM -34.9410 146.5260 218° Southwest 421 484 32,000  Level FlightAware
06:17PM -35.0030 146.4650 219° Southwest 422 486 32,000  Level FlightAware
06:18PM -35.0630 146.4060 219° Southwest 429 494 32,000  Level FlightAware
06:18PM -35.1250 146.3460 218° Southwest 429 494 32,000  Level FlightAware
06:19PM -35.1900 146.2820 219° Southwest 421 484 32,000  Level FlightAware
06:20PM -35.2480 146.2250 219° Southwest 418 481 32,000 420 Level FlightAware
06:20PM -35.2757 146.2004 219° Southwest 425 489 32,400 600 Climbing Aus ATC (RADAR)
06:20PM -35.3285 146.1477 219° Southwest 422 486 32,400 -600 Level Aus ATC (RADAR)
06:20PM -35.3350 146.1390 219° Southwest 417 480 32,000  Descending FlightAware
06:21PM -35.3969 146.0800 219° Southwest 421 484 32,400  Climbing Aus ATC (RADAR)
06:21PM -35.3970 146.0780 219° Southwest 418 481 32,000 -600 Descending FlightAware
06:22PM -35.4570 146.0190 219° Southwest 418 481 32,000 600 Level FlightAware
06:22PM -35.4660 146.0125 219° Southwest 423 487 32,400 660 Climbing Aus ATC (RADAR)
06:22PM -35.5184 145.9588 219° Southwest 422 486 32,400 -600 Level Aus ATC (RADAR)
06:23PM -35.5270 145.9490 219° Southwest 419 482 32,000 -660 Descending FlightAware
06:23PM -35.5730 145.9040 219° Southwest 421 484 32,000  Level FlightAware
06:24PM -35.6410 145.8360 219° Southwest 421 484 32,000  Level FlightAware
06:24PM -35.7040 145.7730 219° Southwest 421 484 32,000  Level FlightAware
06:25PM -35.7500 145.7270 219° Southwest 422 486 32,000  Level FlightAware
06:26PM -35.8200 145.6570 219° Southwest 421 484 32,000  Level FlightAware
06:26PM -35.8873 145.5929 219° Southwest 423 487 32,000  Level Aus ATC (RADAR)
06:26PM -35.8880 145.5890 219° Southwest 420 483 32,000  Level FlightAware
06:27PM -35.9403 145.5384 219° Southwest 424 488 32,000  Level Aus ATC (RADAR)
06:27PM -35.9480 145.5290 219° Southwest 420 483 32,000 -720 Level FlightAware
06:28PM -36.0160 145.4600 219° Southwest 396 456 31,400 -840 Descending FlightAware
06:29PM -36.0710 145.4040 219° Southwest 377 434 30,800 -1,020 Descending FlightAware
06:29PM -36.1310 145.3440 219° Southwest 357 411 30,000 -1,140 Descending FlightAware
06:30PM -36.1820 145.2920 219° Southwest 360 414 29,200 -1,500 Descending FlightAware
06:31PM -36.2360 145.2380 219° Southwest 356 410 28,000 -1,800 Descending FlightAware
06:31PM -36.2880 145.1840 220° Southwest 357 411 26,800 -1,800 Descending FlightAware
06:32PM -36.3380 145.1330 219° Southwest 353 406 25,700 -1,800 Descending FlightAware
06:33PM -36.3998 145.0735 219° Southwest 346 398 24,300 -1,740 Descending Aus ATC (RADAR)
06:33PM -36.3940 145.0770 219° Southwest 343 395 24,400 -960 Climbing FlightAware
06:34PM -36.4520 145.0174 219° Southwest 344 396 23,600 -1,740 Descending Aus ATC (RADAR)
06:34PM -36.4480 145.0210 219° Southwest 337 388 23,100 -1,740 Descending FlightAware
06:34PM -36.4945 144.9737 219° Southwest 341 392 22,600 -1,680 Descending Aus ATC (RADAR)
06:34PM -36.4990 144.9690 219° Southwest 338 389 22,000 -2,220 Descending FlightAware
06:35PM -36.5520 144.9150 219° Southwest 332 382 20,800 -1,680 Descending FlightAware
06:36PM -36.5990 144.8670 219° Southwest 319 367 19,700 -1,620 Descending FlightAware
06:36PM -36.6500 144.8140 220° Southwest 318 366 18,500 -1,620 Descending FlightAware
06:37PM -36.6850 144.7780 220° Southwest 311 358 17,700 -1,620 Descending FlightAware
06:38PM -36.7340 144.7270 220° Southwest 301 346 16,500 -1,620 Descending FlightAware
06:38PM -36.7760 144.6840 219° Southwest 296 341 15,500 -1,500 Descending FlightAware
06:39PM -36.8050 144.6590 215° Southwest 295 339 14,900 -1,500 Descending FlightAware
06:39PM -36.8190 144.6560 190° South 294 338 14,600 -1,560 Descending FlightAware
06:40PM -36.8800 144.6680 171° South 290 334 13,500 -1,200 Descending FlightAware
06:40PM -36.9334 144.6792 171° South 284 327 13,000 -1,500 Descending Aus ATC (RADAR)
06:40PM -36.9330 144.6800 171° South 283 326 12,500 -1,380 Descending FlightAware
06:41PM -36.9782 144.6893 171° South 279 321 12,200 -1,680 Descending Aus ATC (RADAR)
06:41PM -36.9850 144.6910 171° South 280 322 11,400 -2,760 Descending FlightAware
06:42PM -37.0430 144.7040 170° South 289 333 9,900 -1,860 Descending FlightAware
06:42PM -37.0560 144.7070 170° South 283 326 9,700 -1,200 Descending FlightAware
06:42PM -37.0950 144.7160 170° South 273 314 9,100 -1,500 Descending FlightAware
06:43PM -37.1290 144.7230 170° South 270 311 8,300 -900 Descending FlightAware
06:43PM -37.1372 144.7248 170° South 266 306 8,600 -1,560 Climbing Aus ATC (RADAR)
06:43PM -37.1600 144.7300 170° South 274 315 7,600 -1,620 Descending FlightAware
06:44PM -37.1910 144.7370 170° South 246 283 7,400 -1,200 Descending FlightAware
06:44PM -37.2120 144.7410 171° South 264 304 6,700 -1,740 Descending FlightAware
06:44PM -37.2310 144.7450 170° South 259 298 6,400 -1,200 Descending FlightAware
06:45PM -37.2650 144.7520 171° South 252 290 5,800 -1,260 Descending FlightAware
06:45PM -37.2840 144.7560 170° South 248 285 5,500 -1,200 Descending FlightAware
06:45PM -37.3170 144.7630 170° South 238 274 5,000 -1,020 Descending FlightAware
06:46PM -37.3430 144.7690 170° South 226 260 4,600 -1,080 Descending FlightAware
06:46PM -37.3680 144.7750 169° South 223 257 4,100 -1,200 Descending FlightAware
06:47PM -37.4000 144.7830 169° South 217 250 3,500 -660 Descending FlightAware
06:47PM -37.4230 144.7890 168° South 200 230 3,500  Level FlightAware
06:48PM -37.4450 144.7940 170° South 185 213 3,500  Level FlightAware
06:48PM -37.4610 144.7980 169° South 182 209 3,500 -720 Level FlightAware
06:48PM -37.4840 144.8030 170° South 172 198 2,900 -1,200 Descending FlightAware
06:49PM -37.5060 144.8080 170° South 170 196 2,400 -840 Descending FlightAware
06:49PM -37.5240 144.8110 172° South 156 180 2,200 -300 Descending FlightAware
06:50PM -37.5360 144.8130 172° South 151 174 2,200 -540 Level FlightAware
06:50PM -37.5570 144.8170 171° South 157 181 1,800 -780 Descending FlightAware
06:51PM -37.5740 144.8200 172° South 140 161 1,500 -720 Descending FlightAware
06:51PM -37.5890 144.8230 171° South 129 148 1,200 -720 Descending FlightAware
06:51PM -37.6040 144.8260 171° South 127 146 900 -540 Descending FlightAware
06:52PM -37.6070 144.8260 180° South 127 146 900 -120 Level FlightAware
06:52PM -37.6351 144.8309 180° South 123 142 800 -780 Descending Aus ATC (RADAR)
06:52PM -37.6370 144.8320 180° South 126 145 300 -6,000 Descending FlightAware
06:53PM -37.6650 144.8370 172° South 88 101 -420 Descending FlightAware
06:54PM -37.6700 144.8380 171° South 27 31  Level FlightAware